Time;durP1;ratioP1;P1;durP2;ratioP2;P2;SDS_P1;SDS_P2;PMS_P1;PMS_P2;Temp;Humidity;BMP_temperature;BMP_pressure;BME280_temperature;BME280_humidity;BME280_pressure;Samples;Min_cycle;Max_cycle;Signal;HPM_P1;HPM_P2
2023/09/17 00:02:07;;;;;;;5.25;3.22;;;;;;;19.53;62.91;99133.34;5131724;27;20310;-77
2023/09/17 00:04:34;;;;;;;4.38;3.20;;;;;;;19.48;62.89;99127.56;5148705;27;20134;-76
2023/09/17 00:07:01;;;;;;;4.60;3.47;;;;;;;19.07;62.68;99068.84;5149722;27;20038;-76
2023/09/17 00:09:27;;;;;;;5.47;3.60;;;;;;;19.31;63.27;99122.94;5148538;27;20291;-76
2023/09/17 00:11:54;;;;;;;5.20;2.90;;;;;;;19.43;63.77;99115.56;5148433;27;20038;-76
2023/09/17 00:14:23;;;;;;;4.55;3.50;;;;;;;19.52;63.50;99114.69;5149504;27;20054;-76
2023/09/17 00:16:49;;;;;;;5.60;3.42;;;;;;;19.29;62.95;99122.22;5149398;27;20051;-76
2023/09/17 00:19:16;;;;;;;4.20;3.42;;;;;;;19.34;64.08;99127.16;5148280;27;20368;-76
2023/09/17 00:21:43;;;;;;;6.13;4.10;;;;;;;19.23;62.99;99125.50;5149570;27;20307;-76
2023/09/17 00:24:11;;;;;;;4.40;3.38;;;;;;;19.33;64.22;99137.06;5148301;27;20050;-75
2023/09/17 00:26:37;;;;;;;6.93;3.25;;;;;;;19.26;63.33;99118.97;5148074;27;20062;-76
2023/09/17 00:29:04;;;;;;;3.90;3.10;;;;;;;19.33;64.40;99126.31;5149207;27;20043;-76
2023/09/17 00:31:34;;;;;;;4.43;3.17;;;;;;;19.31;63.99;99120.25;5149344;27;20280;-76
2023/09/17 00:34:01;;;;;;;4.35;3.35;;;;;;;18.79;63.65;99051.81;5149074;27;20043;-76
2023/09/17 00:36:27;;;;;;;6.72;3.65;;;;;;;19.21;63.79;99106.84;5148688;27;20039;-76
2023/09/17 00:38:54;;;;;;;5.32;4.00;;;;;;;19.10;64.21;99116.91;5148581;27;20043;-76
2023/09/17 00:41:21;;;;;;;6.05;3.60;;;;;;;18.25;64.69;98954.81;5148303;27;20046;-76
2023/09/17 00:43:48;;;;;;;6.05;3.45;;;;;;;19.13;64.82;99108.53;5148618;27;20050;-76
2023/09/17 00:46:15;;;;;;;5.60;3.28;;;;;;;18.66;64.62;99067.34;5148521;27;20043;-76
2023/09/17 00:48:54;;;;;;;5.90;3.53;;;;;;;19.21;65.14;99114.88;5148515;27;20156;-76
2023/09/17 00:51:21;;;;;;;5.05;3.90;;;;;;;18.98;64.61;99112.69;5149161;27;20043;-77
2023/09/17 00:53:48;;;;;;;4.55;3.67;;;;;;;18.90;64.76;99106.19;5147559;27;20093;-78
2023/09/17 00:56:16;;;;;;;5.93;4.32;;;;;;;18.92;64.82;99106.88;5147435;27;20043;-78
2023/09/17 00:58:43;;;;;;;5.35;4.03;;;;;;;18.77;65.37;99102.94;5147533;27;20039;-77
2023/09/17 01:01:12;;;;;;;5.40;3.90;;;;;;;18.95;65.53;99107.59;5147463;27;20039;-77
2023/09/17 01:03:39;;;;;;;5.13;3.88;;;;;;;18.81;65.59;99108.88;5148376;27;20091;-77
2023/09/17 01:06:11;;;;;;;6.00;4.22;;;;;;;18.85;65.84;99107.59;5147294;27;20092;-78
2023/09/17 01:08:39;;;;;;;4.93;4.05;;;;;;;18.98;66.57;99112.69;5148610;27;20047;-77
2023/09/17 01:11:07;;;;;;;5.15;4.13;;;;;;;18.65;65.72;99038.81;5148131;27;20039;-77
2023/09/17 01:13:35;;;;;;;4.95;3.90;;;;;;;18.99;65.78;99109.00;5148215;27;20039;-76
2023/09/17 01:16:03;;;;;;;4.82;3.30;;;;;;;18.63;67.05;99032.75;5148232;27;20077;-77
2023/09/17 01:18:30;;;;;;;7.38;4.30;;;;;;;19.12;66.16;99115.75;5147056;27;20070;-77
2023/09/17 01:21:02;;;;;;;4.57;3.95;;;;;;;19.09;66.70;99115.19;5148413;27;20035;-77
2023/09/17 01:23:39;;;;;;;6.05;3.60;;;;;;;18.85;65.82;99107.59;5148422;27;20045;-77
2023/09/17 01:26:13;;;;;;;4.45;3.70;;;;;;;18.69;66.49;99105.50;5148383;27;20042;-77
2023/09/17 01:28:41;;;;;;;4.28;3.78;;;;;;;18.78;67.47;99107.31;5147726;27;20103;-77
2023/09/17 01:31:09;;;;;;;5.13;4.20;;;;;;;18.89;67.90;99107.19;5147558;27;20058;-77
2023/09/17 01:33:36;;;;;;;4.88;4.03;;;;;;;18.78;67.03;99074.25;5147500;27;20050;-75
2023/09/17 01:36:07;;;;;;;4.95;3.70;;;;;;;18.40;67.69;99013.41;5147780;27;20054;-76
2023/09/17 01:38:39;;;;;;;4.95;4.00;;;;;;;18.49;67.21;99044.72;5147755;27;20292;-75
2023/09/17 01:41:08;;;;;;;6.00;3.63;;;;;;;18.79;68.24;99105.50;5146584;27;20042;-75
2023/09/17 01:43:38;;;;;;;5.70;3.85;;;;;;;18.76;67.57;99098.56;5146851;27;20050;-75
2023/09/17 01:46:06;;;;;;;4.72;3.92;;;;;;;18.94;67.97;99106.75;5147640;27;20084;-77
2023/09/17 01:48:33;;;;;;;5.00;3.80;;;;;;;18.90;67.38;99103.50;5146529;27;20035;-77
2023/09/17 01:51:00;;;;;;;5.70;3.85;;;;;;;18.54;68.82;99047.88;5146360;27;20066;-77
2023/09/17 01:53:28;;;;;;;5.00;4.03;;;;;;;18.81;66.73;99098.13;5147315;27;20039;-77
2023/09/17 01:55:56;;;;;;;6.10;4.13;;;;;;;18.83;67.86;99098.84;5146565;27;20087;-75
2023/09/17 01:58:24;;;;;;;5.28;4.10;;;;;;;18.86;67.72;99093.19;5146713;27;20119;-75
2023/09/17 02:00:52;;;;;;;6.30;4.32;;;;;;;18.60;67.78;99052.66;5145549;27;20041;-74
2023/09/17 02:03:20;;;;;;;5.35;4.25;;;;;;;18.71;67.59;99063.25;5147617;27;20038;-74
2023/09/17 02:05:47;;;;;;;4.75;3.90;;;;;;;18.48;67.71;99060.00;5146960;27;20054;-75
2023/09/17 02:08:14;;;;;;;6.38;4.32;;;;;;;18.73;68.15;99095.31;5147315;27;20043;-75
2023/09/17 02:10:40;;;;;;;5.30;4.30;;;;;;;18.79;68.65;99094.75;5147397;27;20039;-76
2023/09/17 02:13:07;;;;;;;5.70;3.70;;;;;;;18.64;68.53;99063.97;5146027;27;20062;-75
2023/09/17 02:15:34;;;;;;;4.05;3.42;;;;;;;18.71;68.32;99091.94;5146064;27;20039;-75
2023/09/17 02:18:01;;;;;;;6.90;4.40;;;;;;;18.67;69.46;99099.44;5145837;27;20108;-75
2023/09/17 02:20:31;;;;;;;5.03;3.55;;;;;;;18.78;67.90;99104.66;5147247;27;20064;-75
2023/09/17 02:22:57;;;;;;;4.32;3.35;;;;;;;18.75;68.50;99104.09;5146793;27;20073;-75
2023/09/17 02:25:24;;;;;;;6.45;3.60;;;;;;;18.51;69.42;99061.53;5145970;27;20039;-75
2023/09/17 02:27:51;;;;;;;5.03;4.10;;;;;;;18.39;69.05;99050.09;5146675;27;20047;-75
2023/09/17 02:30:17;;;;;;;4.70;3.75;;;;;;;18.64;69.25;99091.66;5146653;27;20043;-76
2023/09/17 02:32:45;;;;;;;5.35;4.20;;;;;;;18.68;68.69;99097.59;5129455;28;20062;-76
2023/09/17 02:35:11;;;;;;;5.00;4.20;;;;;;;18.12;68.33;99053.47;5146228;28;20039;-75
2023/09/17 02:37:40;;;;;;;5.65;3.95;;;;;;;17.94;68.85;99018.47;5145778;28;20245;-76
2023/09/17 02:40:09;;;;;;;5.13;4.25;;;;;;;18.13;68.79;99082.00;5128648;28;20209;-75
2023/09/17 02:42:36;;;;;;;4.55;3.72;;;;;;;18.27;68.93;99099.50;5147210;27;20291;-76
2023/09/17 02:45:05;;;;;;;4.45;3.45;;;;;;;18.20;69.35;99101.91;5146511;28;20196;-76
2023/09/17 02:47:33;;;;;;;4.80;3.85;;;;;;;18.15;69.44;99097.94;5146829;28;20189;-76
2023/09/17 02:50:00;;;;;;;4.72;3.95;;;;;;;17.76;69.20;99004.03;5147063;28;20043;-75
2023/09/17 02:52:27;;;;;;;5.72;3.75;;;;;;;18.43;69.18;99086.41;5146172;27;20122;-75
2023/09/17 02:54:56;;;;;;;5.90;4.35;;;;;;;18.44;70.32;99095.28;5146779;28;20054;-75
2023/09/17 02:57:23;;;;;;;7.07;4.40;;;;;;;18.18;68.94;99046.72;5146763;27;20043;-75
2023/09/17 02:59:51;;;;;;;6.20;4.13;;;;;;;18.35;69.87;99096.97;5145513;28;20096;-75
2023/09/17 03:02:18;;;;;;;4.75;3.90;;;;;;;18.42;70.31;99098.13;5145561;28;20214;-75
2023/09/17 03:04:44;;;;;;;5.38;3.83;;;;;;;17.97;69.32;99059.38;5146469;27;20084;-76
2023/09/17 03:07:11;;;;;;;5.57;3.97;;;;;;;18.29;70.14;99100.22;5146700;28;20051;-76
2023/09/17 03:09:38;;;;;;;5.25;4.47;;;;;;;18.32;70.46;99102.63;5146497;27;20050;-76
2023/09/17 03:12:08;;;;;;;5.32;4.40;;;;;;;18.39;70.25;99109.13;5149228;27;20102;-76
2023/09/17 03:14:34;;;;;;;6.45;3.80;;;;;;;18.40;70.24;99107.28;5149554;27;20047;-76
2023/09/17 03:17:03;;;;;;;6.47;4.28;;;;;;;17.92;70.54;99035.66;5149265;27;20241;-76
2023/09/17 03:19:30;;;;;;;6.05;4.60;;;;;;;18.09;69.97;99106.53;5150512;27;20047;-76
2023/09/17 03:21:56;;;;;;;4.95;3.92;;;;;;;17.92;70.37;99062.47;5150431;27;20119;-76
2023/09/17 03:24:23;;;;;;;4.22;3.80;;;;;;;18.01;71.13;99064.34;5150449;27;20245;-76
2023/09/17 03:26:51;;;;;;;5.40;4.00;;;;;;;18.01;71.20;99071.53;5132430;27;20043;-76
2023/09/17 03:29:20;;;;;;;4.78;4.05;;;;;;;18.28;70.99;99114.63;5150356;27;20039;-76
2023/09/17 03:31:48;;;;;;;5.90;4.50;;;;;;;17.97;70.64;99045.97;5150587;27;20049;-76
2023/09/17 03:34:15;;;;;;;4.80;3.80;;;;;;;18.30;71.03;99114.47;5149605;27;20051;-76
2023/09/17 03:36:42;;;;;;;5.28;4.22;;;;;;;18.00;70.83;99070.69;5149976;27;20039;-76
2023/09/17 03:39:09;;;;;;;5.03;4.10;;;;;;;18.34;71.95;99118.59;5150178;27;20047;-76
2023/09/17 03:41:39;;;;;;;5.72;4.05;;;;;;;18.30;71.83;99117.16;5150377;27;20057;-76
2023/09/17 03:44:07;;;;;;;4.53;3.72;;;;;;;18.32;71.93;99121.41;5150327;27;20042;-76
2023/09/17 03:46:36;;;;;;;4.88;4.28;;;;;;;17.99;71.70;99077.03;5148876;27;20039;-76
2023/09/17 03:49:03;;;;;;;4.32;3.75;;;;;;;18.26;72.30;99130.84;5149001;27;20096;-76
2023/09/17 03:51:30;;;;;;;4.88;4.30;;;;;;;18.11;72.50;99101.91;5149559;27;20035;-76
2023/09/17 03:53:57;;;;;;;5.82;3.88;;;;;;;18.15;72.34;99106.00;5149488;27;20118;-76
2023/09/17 03:56:24;;;;;;;5.03;4.18;;;;;;;18.21;72.37;99117.00;5149546;27;20337;-76
2023/09/17 03:58:53;;;;;;;5.88;4.15;;;;;;;18.24;72.00;99121.25;5149683;27;20077;-76
2023/09/17 04:01:20;;;;;;;4.57;3.97;;;;;;;17.49;72.76;98995.78;5149471;27;20230;-76
2023/09/17 04:03:49;;;;;;;5.07;4.05;;;;;;;18.24;71.03;99130.16;5149682;27;20055;-76
2023/09/17 04:06:16;;;;;;;4.97;4.22;;;;;;;18.08;71.90;99124.47;5148494;27;20122;-76
2023/09/17 04:08:43;;;;;;;4.20;3.80;;;;;;;17.78;71.99;99070.91;5149270;27;20043;-76
2023/09/17 04:11:15;;;;;;;4.93;3.75;;;;;;;18.13;72.18;99119.53;5148732;27;20211;-76
2023/09/17 04:13:42;;;;;;;7.05;4.18;;;;;;;18.14;70.91;99128.44;5148350;27;20035;-76
2023/09/17 04:16:09;;;;;;;5.93;4.57;;;;;;;18.03;72.34;99121.34;5148293;27;20046;-76
2023/09/17 04:18:36;;;;;;;7.93;4.63;;;;;;;17.51;72.69;99052.75;5148328;27;20049;-76
2023/09/17 04:21:04;;;;;;;6.28;4.22;;;;;;;18.07;72.21;99133.50;5148227;27;20031;-76
2023/09/17 04:23:31;;;;;;;4.65;4.15;;;;;;;17.99;72.39;99133.34;5147384;27;20291;-76
2023/09/17 04:25:58;;;;;;;4.97;4.35;;;;;;;18.04;71.66;99135.59;5149243;27;20054;-76
2023/09/17 04:28:25;;;;;;;5.30;3.65;;;;;;;18.03;71.98;99137.44;5148021;27;20035;-76
2023/09/17 04:30:52;;;;;;;7.35;4.25;;;;;;;17.83;72.16;99108.88;5149110;27;20051;-77
2023/09/17 04:33:20;;;;;;;5.43;4.65;;;;;;;17.66;72.60;99096.13;5149003;27;20207;-76
2023/09/17 04:35:47;;;;;;;4.72;3.67;;;;;;;17.89;72.96;99132.47;5147900;27;20054;-76
2023/09/17 04:38:16;;;;;;;7.57;4.72;;;;;;;17.97;72.37;99146.03;5130929;27;20076;-76
2023/09/17 04:40:43;;;;;;;6.28;3.95;;;;;;;17.95;72.89;99145.31;5148948;27;20062;-76
2023/09/17 04:43:10;;;;;;;5.82;4.15;;;;;;;17.94;72.66;99151.66;5148951;27;20103;-76
2023/09/17 04:45:39;;;;;;;6.15;4.38;;;;;;;17.95;73.27;99158.72;5148422;27;20095;-76
2023/09/17 04:48:07;;;;;;;4.50;4.00;;;;;;;17.76;71.75;99124.66;5148520;27;20237;-76
2023/09/17 04:50:34;;;;;;;5.88;4.20;;;;;;;17.91;70.91;99171.56;5147652;27;20180;-76
2023/09/17 04:53:01;;;;;;;5.68;5.03;;;;;;;17.53;72.41;99125.78;5147417;27;20237;-76
2023/09/17 04:55:30;;;;;;;6.00;5.18;;;;;;;17.78;73.15;99176.28;5148395;27;20303;-76
2023/09/17 04:57:56;;;;;;;6.05;5.18;;;;;;;17.42;73.24;99113.34;5148648;27;20051;-76
2023/09/17 05:00:23;;;;;;;5.88;4.80;;;;;;;16.68;73.31;98981.44;5148615;27;20096;-76
2023/09/17 05:02:50;;;;;;;8.57;5.18;;;;;;;17.44;73.78;99113.22;5148462;27;20214;-76
2023/09/17 05:05:19;;;;;;;6.25;5.05;;;;;;;17.76;74.27;99180.94;5148462;27;20043;-76
2023/09/17 05:07:48;;;;;;;10.18;6.45;;;;;;;17.77;74.52;99165.72;5147567;27;20035;-76
2023/09/17 05:10:15;;;;;;;5.88;5.25;;;;;;;17.75;74.78;99171.22;5148104;27;20049;-76
2023/09/17 05:12:44;;;;;;;7.38;5.07;;;;;;;17.74;74.62;99174.88;5147064;27;20046;-76
2023/09/17 05:15:11;;;;;;;6.25;4.65;;;;;;;17.80;74.41;99181.53;5148014;27;20042;-76
2023/09/17 05:17:38;;;;;;;11.18;5.60;;;;;;;17.52;73.72;99119.59;5147931;27;20256;-76
2023/09/17 05:20:07;;;;;;;6.20;4.30;;;;;;;17.84;74.28;99182.94;5147998;27;20061;-76
2023/09/17 05:22:34;;;;;;;8.65;4.78;;;;;;;17.84;74.66;99193.69;5147705;27;20065;-76
2023/09/17 05:25:01;;;;;;;5.35;4.80;;;;;;;17.46;74.50;99136.19;5148330;27;20106;-76
2023/09/17 05:27:28;;;;;;;6.00;4.60;;;;;;;17.47;73.60;99121.81;5146935;27;20221;-77
2023/09/17 05:29:56;;;;;;;6.55;5.05;;;;;;;17.93;74.50;99204.44;5147607;27;20051;-77
2023/09/17 05:32:23;;;;;;;10.00;5.65;;;;;;;17.93;74.24;99198.22;5146721;27;20035;-76
2023/09/17 05:34:49;;;;;;;7.63;5.13;;;;;;;17.49;74.73;99138.63;5147089;27;20055;-76
2023/09/17 05:37:16;;;;;;;7.15;5.40;;;;;;;17.90;74.82;99201.19;5147701;27;20055;-77
2023/09/17 05:39:43;;;;;;;6.88;5.03;;;;;;;17.93;74.66;99212.47;5147221;27;20039;-77
2023/09/17 05:42:09;;;;;;;7.68;5.47;;;;;;;17.72;72.78;99163.44;5147326;27;20047;-76
2023/09/17 05:44:38;;;;;;;6.65;5.38;;;;;;;17.82;72.05;99172.38;5147633;27;20031;-76
2023/09/17 05:47:06;;;;;;;6.00;4.63;;;;;;;17.73;71.19;99145.53;5147609;27;20051;-77
2023/09/17 05:49:33;;;;;;;5.20;4.70;;;;;;;16.95;71.74;99003.16;5146459;27;20356;-76
2023/09/17 05:52:00;;;;;;;5.82;5.10;;;;;;;18.20;72.83;99225.28;5147395;27;20050;-77
2023/09/17 05:54:27;;;;;;;7.28;4.40;;;;;;;17.97;73.01;99169.31;5146420;27;20042;-76
2023/09/17 05:56:53;;;;;;;5.38;4.70;;;;;;;18.25;73.04;99222.19;5146874;27;20042;-77
2023/09/17 05:59:20;;;;;;;7.30;5.05;;;;;;;18.27;71.68;99223.75;5147148;27;20038;-77
2023/09/17 06:01:47;;;;;;;7.20;5.30;;;;;;;18.26;73.08;99230.13;5147690;27;20043;-77
2023/09/17 06:04:15;;;;;;;6.47;5.47;;;;;;;18.21;73.34;99221.63;5147095;27;20196;-76
2023/09/17 06:06:42;;;;;;;7.95;5.28;;;;;;;17.99;72.63;99208.41;5147351;27;20296;-77
2023/09/17 06:09:09;;;;;;;6.70;5.97;;;;;;;18.24;72.50;99234.75;5146369;27;20079;-76
2023/09/17 06:11:35;;;;;;;7.38;5.03;;;;;;;18.02;72.56;99178.66;5147299;27;20050;-77
2023/09/17 06:14:02;;;;;;;5.25;4.68;;;;;;;18.35;73.11;99236.50;5147203;27;20055;-77
2023/09/17 06:16:29;;;;;;;5.53;4.97;;;;;;;18.35;72.63;99239.19;5146634;27;20311;-76
2023/09/17 06:18:56;;;;;;;7.07;5.07;;;;;;;18.14;72.66;99187.44;5147503;27;20051;-76
2023/09/17 06:21:24;;;;;;;6.93;4.70;;;;;;;18.11;71.95;99180.50;5146930;27;20038;-77
2023/09/17 06:23:51;;;;;;;6.05;4.50;;;;;;;18.49;71.26;99251.34;5147423;27;20035;-76
2023/09/17 06:26:17;;;;;;;4.88;4.38;;;;;;;18.58;73.17;99246.03;5146867;27;20210;-76
2023/09/17 06:28:44;;;;;;;6.65;4.78;;;;;;;18.20;71.84;99182.38;5147273;27;20043;-76
2023/09/17 06:31:11;;;;;;;11.25;5.28;;;;;;;18.28;71.91;99198.63;5146001;27;20080;-76
2023/09/17 06:33:38;;;;;;;6.72;4.75;;;;;;;18.66;71.39;99244.50;5146922;27;20088;-77
2023/09/17 06:36:05;;;;;;;6.15;5.50;;;;;;;18.64;71.59;99250.00;5145663;28;20043;-77
2023/09/17 06:38:34;;;;;;;5.45;4.65;;;;;;;18.28;71.44;99181.69;5145736;28;20122;-77
2023/09/17 06:41:00;;;;;;;6.85;5.35;;;;;;;18.88;70.68;99245.09;5145764;28;20080;-76
2023/09/17 06:43:29;;;;;;;5.70;4.75;;;;;;;18.94;70.03;99251.75;5145640;28;20203;-77
2023/09/17 06:45:56;;;;;;;5.75;5.15;;;;;;;18.44;69.77;99184.69;5146785;27;20061;-76
2023/09/17 06:48:24;;;;;;;5.93;4.85;;;;;;;18.98;70.09;99261.22;5151110;27;20054;-76
2023/09/17 06:50:51;;;;;;;5.88;5.22;;;;;;;19.10;68.92;99253.88;5151154;27;20260;-76
2023/09/17 06:53:17;;;;;;;5.97;4.53;;;;;;;19.12;69.52;99252.75;5149867;27;20299;-76
2023/09/17 06:55:45;;;;;;;7.28;5.78;;;;;;;19.27;68.89;99249.63;5149841;27;20050;-76
2023/09/17 06:58:16;;;;;;;5.93;4.88;;;;;;;19.38;68.91;99242.28;5149815;27;20045;-77
2023/09/17 07:00:43;;;;;;;6.45;5.15;;;;;;;19.13;68.64;99205.25;5149757;27;20068;-77
2023/09/17 07:03:09;;;;;;;6.50;5.55;;;;;;;19.48;68.22;99247.66;5150687;27;20115;-76
2023/09/17 07:05:36;;;;;;;5.90;4.80;;;;;;;19.48;67.98;99244.97;5149658;27;20045;-77
2023/09/17 07:08:03;;;;;;;6.50;5.15;;;;;;;19.16;67.68;99210.34;5150760;27;20043;-77
2023/09/17 07:10:31;;;;;;;5.72;4.97;;;;;;;19.53;67.38;99256.16;5149608;27;20045;-77
2023/09/17 07:12:59;;;;;;;6.07;4.85;;;;;;;18.98;66.81;99152.97;5150347;27;20054;-76
2023/09/17 07:15:26;;;;;;;7.75;5.10;;;;;;;19.77;66.22;99258.38;5150992;27;20110;-77
2023/09/17 07:17:53;;;;;;;6.07;5.07;;;;;;;19.56;65.69;99204.78;5149436;27;20309;-77
2023/09/17 07:20:20;;;;;;;6.00;4.57;;;;;;;19.93;66.03;99255.94;5149330;27;20038;-77
2023/09/17 07:22:48;;;;;;;6.28;4.53;;;;;;;20.06;66.15;99258.31;5150492;27;20039;-77
2023/09/17 07:25:14;;;;;;;7.00;6.03;;;;;;;20.01;64.98;99261.44;5150472;27;20100;-76
2023/09/17 07:27:41;;;;;;;6.28;5.50;;;;;;;20.01;65.21;99263.28;5149145;27;20039;-77
2023/09/17 07:30:10;;;;;;;5.97;4.93;;;;;;;20.09;65.09;99264.25;5150200;27;20061;-77
2023/09/17 07:32:38;;;;;;;6.85;5.30;;;;;;;19.63;65.38;99180.88;5149094;27;20249;-77
2023/09/17 07:35:06;;;;;;;6.45;5.10;;;;;;;20.04;64.86;99245.00;5148934;27;20096;-77
2023/09/17 07:37:32;;;;;;;6.68;4.97;;;;;;;20.35;64.21;99271.69;5149675;27;20050;-77
2023/09/17 07:40:01;;;;;;;6.85;5.22;;;;;;;19.89;64.64;99218.72;5150052;27;20053;-77
2023/09/17 07:42:28;;;;;;;7.22;5.45;;;;;;;20.29;65.27;99272.28;5149528;27;20039;-77
2023/09/17 07:44:54;;;;;;;7.93;4.95;;;;;;;20.28;65.91;99279.50;5148857;27;20200;-77
2023/09/17 07:47:23;;;;;;;6.72;5.00;;;;;;;20.40;64.65;99275.63;5149794;27;20051;-77
2023/09/17 07:49:50;;;;;;;10.70;5.80;;;;;;;20.65;64.35;99273.22;5149815;27;20047;-77
2023/09/17 07:52:17;;;;;;;9.15;5.95;;;;;;;20.71;62.84;99272.63;5149436;27;20057;-77
2023/09/17 07:54:44;;;;;;;7.28;5.82;;;;;;;20.76;62.90;99275.72;5149648;27;20061;-77
2023/09/17 07:57:13;;;;;;;6.60;5.65;;;;;;;20.79;61.79;99280.78;5149115;27;20039;-77
2023/09/17 07:59:40;;;;;;;5.45;4.93;;;;;;;20.81;63.24;99284.19;5149023;27;20051;-77
2023/09/17 08:02:07;;;;;;;8.20;5.78;;;;;;;20.78;63.36;99279.09;5148712;27;20049;-77
2023/09/17 08:04:36;;;;;;;7.00;5.53;;;;;;;20.84;62.51;99278.50;5149101;27;20054;-77
2023/09/17 08:07:03;;;;;;;6.85;6.15;;;;;;;20.92;61.49;99283.97;5149537;27;20110;-77
2023/09/17 08:09:30;;;;;;;9.13;5.35;;;;;;;20.93;62.09;99279.44;5148451;27;20091;-77
2023/09/17 08:11:59;;;;;;;7.50;5.90;;;;;;;20.67;61.72;99215.53;5149518;27;20039;-77
2023/09/17 08:14:25;;;;;;;6.80;5.88;;;;;;;21.13;61.03;99275.63;5149354;27;20244;-76
2023/09/17 08:16:53;;;;;;;8.57;5.75;;;;;;;20.78;62.15;99211.78;5148040;27;20039;-76
2023/09/17 08:19:20;;;;;;;6.15;5.55;;;;;;;21.17;62.47;99284.25;5149022;27;20227;-76
2023/09/17 08:21:48;;;;;;;5.93;4.88;;;;;;;21.31;61.86;99281.00;5148251;27;20047;-76
2023/09/17 08:24:17;;;;;;;8.35;5.45;;;;;;;21.23;60.59;99230.56;5148697;27;20114;-77
2023/09/17 08:26:44;;;;;;;5.43;4.90;;;;;;;21.43;61.39;99283.31;5148408;27;20066;-77
2023/09/17 08:29:11;;;;;;;6.65;5.15;;;;;;;21.50;59.89;99280.00;5149143;27;20106;-77
2023/09/17 08:31:38;;;;;;;9.07;6.00;;;;;;;20.58;59.52;99118.66;5148846;27;20092;-77
2023/09/17 08:34:04;;;;;;;6.55;5.50;;;;;;;21.21;59.99;99223.66;5149382;27;20039;-77
2023/09/17 08:36:32;;;;;;;5.43;4.85;;;;;;;21.68;59.85;99272.72;5148808;27;20037;-77
2023/09/17 08:39:01;;;;;;;6.63;5.30;;;;;;;21.68;59.81;99278.97;5147885;27;20046;-76
2023/09/17 08:41:28;;;;;;;6.07;5.47;;;;;;;21.89;58.84;99288.59;5147813;27;20050;-77
2023/09/17 08:43:55;;;;;;;5.97;5.05;;;;;;;21.74;58.56;99242.44;5148300;27;20043;-77
2023/09/17 08:46:22;;;;;;;6.93;5.53;;;;;;;21.45;57.97;99172.63;5149331;27;20225;-76
2023/09/17 08:48:49;;;;;;;5.47;4.97;;;;;;;22.25;57.65;99284.75;5147692;27;20043;-76
2023/09/17 08:51:19;;;;;;;7.40;4.43;;;;;;;21.74;58.39;99228.94;5148374;27;20198;-76
2023/09/17 08:53:56;;;;;;;6.78;5.47;;;;;;;22.18;58.19;99282.88;5148016;27;20035;-77
2023/09/17 08:56:25;;;;;;;6.03;5.43;;;;;;;22.29;57.91;99279.88;5148490;27;20081;-77
2023/09/17 08:58:55;;;;;;;5.80;5.20;;;;;;;21.96;57.37;99214.94;5148281;27;20039;-77
2023/09/17 09:01:25;;;;;;;7.47;5.78;;;;;;;22.40;57.38;99272.38;5148705;27;20237;-77
2023/09/17 09:03:54;;;;;;;6.72;5.28;;;;;;;22.33;57.05;99228.09;5148800;27;20080;-77
2023/09/17 09:06:23;;;;;;;7.03;5.65;;;;;;;22.75;56.24;99275.91;5147066;27;20039;-76
2023/09/17 09:08:53;;;;;;;7.20;5.60;;;;;;;22.64;56.65;99208.69;5147013;27;20333;-77
2023/09/17 09:11:19;;;;;;;7.53;5.63;;;;;;;22.32;56.30;99166.19;5148189;27;20098;-77
2023/09/17 09:13:51;;;;;;;6.13;5.53;;;;;;;22.90;55.66;99268.03;5148191;27;20047;-77
2023/09/17 09:16:19;;;;;;;6.85;6.05;;;;;;;23.03;56.28;99273.78;5147997;27;20051;-77
2023/09/17 09:18:46;;;;;;;6.35;4.45;;;;;;;22.84;56.88;99228.16;5147135;27;20039;-76
2023/09/17 09:21:14;;;;;;;7.20;5.07;;;;;;;23.04;56.16;99259.28;5147907;27;20051;-77
2023/09/17 09:23:41;;;;;;;6.15;5.53;;;;;;;23.25;55.98;99272.31;5147929;27;20047;-76
2023/09/17 09:26:07;;;;;;;6.97;6.25;;;;;;;23.18;54.23;99245.09;5146922;27;20191;-77
2023/09/17 09:28:34;;;;;;;5.85;5.25;;;;;;;23.30;55.17;99268.13;5147562;27;20300;-76
2023/09/17 09:31:03;;;;;;;5.90;5.30;;;;;;;22.75;54.25;99162.47;5147063;27;20130;-77
2023/09/17 09:33:31;;;;;;;5.13;4.63;;;;;;;23.21;54.50;99236.66;5147451;27;20340;-77
2023/09/17 09:36:00;;;;;;;5.65;4.72;;;;;;;23.30;54.65;99260.00;5146980;27;20069;-77
2023/09/17 09:38:29;;;;;;;6.05;5.28;;;;;;;23.09;53.78;99202.84;5147408;27;20184;-77
2023/09/17 09:40:56;;;;;;;6.85;5.57;;;;;;;23.51;53.25;99250.53;5148069;27;20042;-77
2023/09/17 09:43:31;;;;;;;5.60;4.88;;;;;;;23.48;53.80;99253.59;5147793;27;20271;-77
2023/09/17 09:46:04;;;;;;;5.18;4.68;;;;;;;23.65;54.70;99247.16;5147680;27;20095;-77
2023/09/17 09:48:31;;;;;;;5.72;4.90;;;;;;;23.11;54.65;99162.97;5146718;27;20039;-77
2023/09/17 09:50:58;;;;;;;6.25;4.60;;;;;;;23.32;54.63;99200.34;5146403;27;20055;-77
2023/09/17 09:53:25;;;;;;;5.50;5.00;;;;;;;23.36;53.52;99205.25;5147404;27;20091;-77
2023/09/17 09:55:52;;;;;;;5.30;4.80;;;;;;;23.19;52.89;99162.97;5147268;27;20212;-78
2023/09/17 09:58:19;;;;;;;6.53;4.70;;;;;;;23.59;53.32;99210.81;5147758;27;20061;-77
2023/09/17 10:00:46;;;;;;;5.30;4.80;;;;;;;23.80;52.86;99258.13;5146229;27;20050;-77
2023/09/17 10:03:19;;;;;;;6.13;5.35;;;;;;;23.98;51.52;99262.34;5147398;27;20035;-77
2023/09/17 10:05:48;;;;;;;7.40;4.90;;;;;;;24.08;51.44;99253.19;5146782;27;20084;-77
2023/09/17 10:08:18;;;;;;;6.18;4.53;;;;;;;24.08;52.14;99254.03;5147291;27;20053;-77
2023/09/17 10:10:45;;;;;;;6.40;5.28;;;;;;;24.13;52.63;99259.78;5147335;27;20165;-78
2023/09/17 10:13:13;;;;;;;7.30;5.22;;;;;;;23.71;50.74;99165.31;5146010;27;20043;-77
2023/09/17 10:15:42;;;;;;;5.28;4.65;;;;;;;24.31;51.35;99244.16;5146201;27;20072;-77
2023/09/17 10:18:12;;;;;;;5.07;4.53;;;;;;;23.65;51.77;99137.06;5146783;27;20113;-77
2023/09/17 10:20:42;;;;;;;7.05;4.70;;;;;;;24.43;51.60;99239.19;5146532;27;20092;-77
2023/09/17 10:23:11;;;;;;;6.28;4.63;;;;;;;24.16;51.70;99189.03;5146026;27;20039;-77
2023/09/17 10:25:40;;;;;;;7.38;4.85;;;;;;;24.10;51.40;99167.22;5146739;27;20360;-78
2023/09/17 10:28:09;;;;;;;5.63;5.05;;;;;;;24.28;50.95;99194.91;5146988;27;20050;-77
2023/09/17 10:30:36;;;;;;;6.63;4.63;;;;;;;24.63;51.01;99239.59;5146955;27;20283;-77
2023/09/17 10:33:07;;;;;;;6.50;5.15;;;;;;;24.58;50.94;99242.00;5147038;27;20053;-78
2023/09/17 10:35:35;;;;;;;5.63;4.80;;;;;;;24.57;51.16;99235.75;5113350;28;20047;-77
2023/09/17 10:38:05;;;;;;;5.68;5.07;;;;;;;24.66;51.29;99235.72;5147014;28;20039;-77
2023/09/17 10:40:33;;;;;;;5.28;4.03;;;;;;;24.70;51.59;99235.19;5145858;28;20335;-78
2023/09/17 10:43:02;;;;;;;6.38;4.90;;;;;;;24.82;50.10;99236.47;5147157;28;20063;-78
2023/09/17 10:45:32;;;;;;;4.85;4.35;;;;;;;24.71;50.66;99234.19;5147026;27;20058;-78
2023/09/17 10:48:02;;;;;;;5.35;4.35;;;;;;;24.77;50.32;99238.03;5146957;27;20034;-78
2023/09/17 10:50:32;;;;;;;7.35;4.43;;;;;;;24.79;50.79;99244.97;5146452;28;20047;-78
2023/09/17 10:52:58;;;;;;;5.50;5.00;;;;;;;24.80;49.44;99234.97;5146448;28;20039;-78
2023/09/17 10:55:29;;;;;;;6.35;4.63;;;;;;;24.97;48.16;99241.97;5147113;27;20039;-78
2023/09/17 10:58:06;;;;;;;5.93;4.40;;;;;;;24.68;47.91;99176.78;5147389;28;20218;-78
2023/09/17 11:00:35;;;;;;;4.85;4.35;;;;;;;24.92;49.04;99236.25;5145633;28;20322;-78
2023/09/17 11:03:05;;;;;;;4.88;4.30;;;;;;;23.91;49.05;99058.34;5146999;27;20100;-78
2023/09/17 11:05:33;;;;;;;8.43;4.63;;;;;;;24.74;48.91;99190.47;5146647;28;20160;-78
2023/09/17 11:08:04;;;;;;;4.45;3.83;;;;;;;24.80;48.37;99192.44;5146740;28;20050;-78
2023/09/17 11:10:32;;;;;;;4.93;4.40;;;;;;;25.12;48.42;99228.53;5145698;28;20075;-78
2023/09/17 11:12:59;;;;;;;5.75;5.18;;;;;;;25.10;47.43;99238.72;5145817;28;20080;-78
2023/09/17 11:15:27;;;;;;;4.90;4.40;;;;;;;25.20;47.19;99228.47;5146846;28;20035;-78
2023/09/17 11:17:59;;;;;;;6.45;5.13;;;;;;;25.18;47.48;99220.50;5147068;28;20062;-79
2023/09/17 11:20:26;;;;;;;7.07;4.35;;;;;;;25.23;47.31;99215.38;5146940;28;20043;-77
2023/09/17 11:22:53;;;;;;;5.57;4.18;;;;;;;24.90;47.15;99157.81;5146617;28;20043;-78
2023/09/17 11:25:36;;;;;;;4.63;4.13;;;;;;;25.30;47.27;99220.91;5146361;28;20047;-78
2023/09/17 11:28:11;;;;;;;5.72;4.43;;;;;;;25.31;47.13;99219.06;5145706;28;20050;-77
2023/09/17 11:30:58;;;;;;;4.60;4.10;;;;;;;24.96;46.38;99156.25;5147161;28;20035;-77
2023/09/17 11:33:26;;;;;;;5.68;4.18;;;;;;;25.33;47.26;99225.16;5152210;27;20096;-77
2023/09/17 11:35:54;;;;;;;4.68;4.28;;;;;;;25.22;46.88;99227.25;5151928;27;20102;-78
2023/09/17 11:38:24;;;;;;;4.25;3.65;;;;;;;25.25;47.42;99221.47;5150678;27;20245;-77